Time;durP1;ratioP1;P1;durP2;ratioP2;P2;SDS_P1;SDS_P2;PMS_P1;PMS_P2;Temp;Humidity;BMP_temperature;BMP_pressure;BME280_temperature;BME280_humidity;BME280_pressure;Samples;Min_cycle;Max_cycle;Signal;HPM_P1;HPM_P2
2023/01/12 00:00:41;;;;;;;113.40;62.90;;;;;;;1.72;87.44;98839.75;89517;1267;22616;-70
2023/01/12 00:02:53;;;;;;;113.30;64.30;;;;;;;1.74;87.28;98844.92;89420;1262;98361;-70
2023/01/12 00:04:54;;;;;;;111.60;63.60;;;;;;;1.77;87.30;98852.67;89501;1265;22649;-71
2023/01/12 00:06:57;;;;;;;110.60;64.80;;;;;;;1.79;87.29;98850.73;89444;1262;22474;-71
2023/01/12 00:09:02;;;;;;;109.30;67.00;;;;;;;1.81;87.76;98854.86;89362;1268;99370;-70
2023/01/12 00:11:04;;;;;;;117.30;65.30;;;;;;;1.84;87.80;98853.95;89232;1272;22664;-71
2023/01/12 00:13:06;;;;;;;107.50;63.10;;;;;;;1.87;87.40;98860.32;89512;1268;22680;-70
2023/01/12 00:15:08;;;;;;;108.80;63.80;;;;;;;1.90;87.26;98864.44;89263;1270;98332;-70
2023/01/12 00:17:13;;;;;;;100.00;61.10;;;;;;;1.93;87.71;98869.26;89569;1270;22551;-70
2023/01/12 00:19:22;;;;;;;103.60;60.80;;;;;;;1.96;87.65;98869.20;89428;1266;22581;-71
2023/01/12 00:21:23;;;;;;;95.80;58.30;;;;;;;2.00;87.72;98871.91;89383;1270;98373;-70
2023/01/12 00:23:26;;;;;;;102.20;58.30;;;;;;;2.03;87.50;98873.94;89303;1266;22543;-70
2023/01/12 00:25:28;;;;;;;99.30;58.40;;;;;;;2.07;87.64;98878.92;89563;1269;22572;-70
2023/01/12 00:27:29;;;;;;;93.30;56.40;;;;;;;2.09;87.85;98882.00;89426;1267;97948;-70
2023/01/12 00:29:32;;;;;;;103.60;56.50;;;;;;;2.12;87.76;98884.89;89460;1270;22586;-70
2023/01/12 00:31:34;;;;;;;92.50;57.20;;;;;;;2.14;87.65;98883.15;89301;1266;25661;-72
2023/01/12 00:33:37;;;;;;;96.70;58.40;;;;;;;2.17;88.04;98884.30;89384;1272;100851;-70
2023/01/12 00:35:39;;;;;;;104.10;57.10;;;;;;;2.19;87.78;98882.88;89324;1270;23967;-70
2023/01/12 00:37:41;;;;;;;96.50;57.00;;;;;;;2.23;87.68;98887.50;89203;1273;22586;-70
2023/01/12 00:39:42;;;;;;;90.00;57.10;;;;;;;2.24;87.99;98890.77;89333;1270;99175;-70
2023/01/12 00:46:30;;;;;;;98.70;59.00;;;;;;;2.30;87.86;98896.41;89441;1266;98431;-70
2023/01/12 00:48:32;;;;;;;94.50;56.00;;;;;;;2.31;87.55;98898.81;89485;1262;22863;-70
2023/01/12 00:50:33;;;;;;;90.40;53.90;;;;;;;2.33;87.74;98899.81;89429;1270;99803;-72
2023/01/12 00:52:35;;;;;;;91.30;54.50;;;;;;;2.34;87.71;98901.71;89378;1270;22594;-69
2023/01/12 00:54:37;;;;;;;93.20;56.70;;;;;;;2.36;87.65;98902.05;89466;1270;24200;-72
2023/01/12 00:56:39;;;;;;;91.50;52.90;;;;;;;2.37;87.66;98901.67;89228;1267;98246;-71
2023/01/12 00:58:41;;;;;;;90.00;52.60;;;;;;;2.39;87.84;98901.30;89462;1262;24213;-70
2023/01/12 01:00:42;;;;;;;86.20;51.50;;;;;;;2.40;87.84;98903.52;89349;1270;22546;-70
2023/01/12 01:02:44;;;;;;;86.00;51.20;;;;;;;2.43;87.62;98900.70;89245;1271;99236;-71
2023/01/12 01:04:46;;;;;;;91.70;51.50;;;;;;;2.44;88.03;98903.12;89448;1269;22625;-70
2023/01/12 01:06:48;;;;;;;94.60;53.40;;;;;;;2.46;87.96;98899.79;89417;1260;25372;-71
2023/01/12 01:08:50;;;;;;;86.50;50.30;;;;;;;2.48;88.03;98902.36;89144;1267;261096;-70
2023/01/12 01:11:00;;;;;;;85.10;49.90;;;;;;;2.49;87.69;98908.58;89255;1270;22528;-71
2023/01/12 01:13:02;;;;;;;90.90;53.20;;;;;;;2.52;88.08;98909.92;89429;1270;22466;-70
2023/01/12 01:15:04;;;;;;;89.00;51.80;;;;;;;2.53;87.95;98909.39;89303;1269;99010;-71
2023/01/12 01:17:05;;;;;;;84.50;50.50;;;;;;;2.55;87.86;98908.13;89400;1270;24225;-69
2023/01/12 01:19:08;;;;;;;87.10;50.60;;;;;;;2.54;87.74;98912.50;89423;1264;25414;-70
2023/01/12 01:21:11;;;;;;;81.20;49.60;;;;;;;2.54;87.40;98909.02;89316;1270;99706;-71
2023/01/12 01:23:13;;;;;;;81.80;49.40;;;;;;;2.53;87.80;98906.61;89332;1270;22664;-70
2023/01/12 01:25:15;;;;;;;81.10;50.40;;;;;;;2.53;87.61;98901.92;89326;1270;22694;-72
2023/01/12 01:27:16;;;;;;;86.30;50.00;;;;;;;2.54;87.61;98903.98;89236;1271;99142;-70
2023/01/12 01:29:18;;;;;;;83.40;50.70;;;;;;;2.55;87.59;98908.82;89325;1270;22534;-70
2023/01/12 01:31:22;;;;;;;78.60;44.70;;;;;;;2.57;87.81;98906.55;89320;1268;25301;-70
2023/01/12 01:33:24;;;;;;;80.40;44.60;;;;;;;2.57;87.60;98915.39;89229;1267;99102;-71
2023/01/12 01:35:26;;;;;;;85.40;47.80;;;;;;;2.57;87.68;98919.91;89386;1270;22628;-70
2023/01/12 01:37:27;;;;;;;77.70;46.00;;;;;;;2.57;87.71;98921.29;89256;1270;22567;-71
2023/01/12 01:39:29;;;;;;;84.30;47.20;;;;;;;2.58;87.68;98922.50;89317;1270;98677;-71
2023/01/12 01:41:32;;;;;;;83.20;47.80;;;;;;;2.61;87.86;98926.42;89265;1272;22641;-70
2023/01/12 01:43:54;;;;;;;81.50;46.00;;;;;;;2.63;87.85;98923.61;89270;1266;22649;-70
2023/01/12 01:46:03;;;;;;;77.80;47.70;;;;;;;2.65;87.90;98920.29;89303;1270;99301;-70
2023/01/12 01:48:04;;;;;;;81.40;49.50;;;;;;;2.67;88.19;98916.61;89362;1270;24183;-70
2023/01/12 01:50:16;;;;;;;78.80;49.00;;;;;;;2.68;87.98;98909.13;89343;1262;24276;-70
2023/01/12 01:52:29;;;;;;;90.20;49.20;;;;;;;2.69;87.67;98913.11;89428;1270;99169;-70
2023/01/12 01:54:38;;;;;;;82.00;50.10;;;;;;;2.69;87.85;98907.73;89400;1264;23042;-70
2023/01/12 01:56:41;;;;;;;83.80;48.30;;;;;;;2.70;87.92;98907.16;89301;1270;99987;-70
2023/01/12 01:58:52;;;;;;;92.60;50.00;;;;;;;2.70;87.89;98904.92;89678;1273;24226;-71
2023/01/12 02:00:54;;;;;;;88.30;52.20;;;;;;;2.69;87.67;98902.52;89371;1270;26549;-70
2023/01/12 02:02:57;;;;;;;82.90;48.80;;;;;;;2.69;88.11;98903.55;89397;1267;99998;-72
2023/01/12 02:04:59;;;;;;;93.30;49.60;;;;;;;2.69;87.86;98903.38;89762;1267;25284;-71
2023/01/12 02:07:02;;;;;;;79.80;48.20;;;;;;;2.71;87.97;98908.56;89490;1269;23102;-71
2023/01/12 02:09:14;;;;;;;84.00;48.50;;;;;;;2.71;87.68;98913.23;89418;1267;99467;-72
2023/01/12 02:16:19;;;;;;;83.80;48.70;;;;;;;2.73;87.96;98900.04;89283;1269;99136;-70
2023/01/12 02:18:38;;;;;;;96.20;50.50;;;;;;;2.73;87.93;98899.16;89350;1267;23234;-70
2023/01/12 02:20:47;;;;;;;92.60;54.20;;;;;;;2.72;87.98;98899.34;89363;1267;98526;-70
2023/01/12 02:23:30;;;;;;;94.00;54.60;;;;;;;2.71;87.80;98894.52;89393;1266;22538;-70
2023/01/12 02:26:09;;;;;;;97.60;57.30;;;;;;;2.70;87.97;98900.23;89268;1270;24222;-71
2023/01/12 02:28:36;;;;;;;104.00;61.40;;;;;;;2.70;87.83;98902.84;89381;1267;98384;-71
2023/01/12 02:30:37;;;;;;;100.90;60.40;;;;;;;2.70;87.74;98907.55;89436;1267;22581;-71
2023/01/12 02:32:42;;;;;;;98.80;58.70;;;;;;;2.68;87.82;98904.44;89246;1269;101344;-70
2023/01/12 02:34:47;;;;;;;99.10;59.90;;;;;;;2.70;87.94;98912.73;89339;1263;23058;-70
2023/01/12 02:37:10;;;;;;;114.00;59.40;;;;;;;2.72;87.99;98916.02;89395;1267;22560;-70
2023/01/12 02:39:36;;;;;;;95.80;57.20;;;;;;;2.72;87.93;98920.33;89260;1269;99874;-72
2023/01/12 02:44:42;;;;;;;100.10;55.60;;;;;;;2.72;88.08;98923.27;89361;1267;22572;-70
2023/01/12 02:46:50;;;;;;;101.60;59.40;;;;;;;2.73;88.07;98919.11;89388;1267;22540;-70
2023/01/12 02:49:01;;;;;;;96.30;57.30;;;;;;;2.73;87.83;98921.72;89509;1263;24218;-70
2023/01/12 02:51:13;;;;;;;101.00;58.50;;;;;;;2.74;87.95;98923.77;89380;1269;99653;-69
2023/01/12 02:53:21;;;;;;;106.20;59.40;;;;;;;2.75;88.12;98921.86;89348;1269;22574;-72
2023/01/12 02:55:26;;;;;;;102.30;59.50;;;;;;;2.75;88.11;98922.71;89389;1260;25426;-70
2023/01/12 02:57:30;;;;;;;102.50;58.80;;;;;;;2.73;87.81;98918.08;89318;1260;99513;-71
2023/01/12 02:59:35;;;;;;;99.10;61.50;;;;;;;2.75;88.02;98925.85;89455;1267;22999;-71
2023/01/12 03:01:38;;;;;;;106.60;62.40;;;;;;;2.74;87.90;98922.89;89307;1268;22535;-71
2023/01/12 03:03:41;;;;;;;100.60;59.90;;;;;;;2.75;87.81;98929.48;89165;1270;99715;-71
2023/01/12 03:05:42;;;;;;;96.70;57.60;;;;;;;2.75;87.88;98928.10;89424;1268;22841;-72
2023/01/12 03:08:05;;;;;;;94.60;57.60;;;;;;;2.76;88.07;98930.52;89093;1267;22534;-71
2023/01/12 03:10:34;;;;;;;102.70;59.00;;;;;;;2.76;87.86;98935.19;89194;1269;99207;-71
2023/01/12 03:12:37;;;;;;;96.80;57.90;;;;;;;2.78;87.93;98941.75;89350;1268;22534;-71
2023/01/12 03:14:44;;;;;;;100.20;55.70;;;;;;;2.78;87.97;98942.09;89209;1268;100152;-71
2023/01/12 03:16:48;;;;;;;96.00;56.60;;;;;;;2.80;88.03;98941.89;89452;1267;24272;-70
2023/01/12 03:19:16;;;;;;;95.70;58.20;;;;;;;2.80;88.00;98934.60;89407;1268;22524;-71
2023/01/12 03:21:53;;;;;;;89.50;55.00;;;;;;;2.82;88.18;98928.65;89210;1262;99142;-70
2023/01/12 03:24:05;;;;;;;88.40;52.10;;;;;;;2.84;88.02;98926.02;89186;1270;22743;-71
2023/01/12 03:26:10;;;;;;;96.30;52.10;;;;;;;2.85;87.82;98924.80;89194;1270;22804;-70
2023/01/12 03:28:16;;;;;;;90.40;51.30;;;;;;;2.86;88.04;98919.73;89055;1271;99434;-71
2023/01/12 03:30:23;;;;;;;86.30;50.30;;;;;;;2.88;88.19;98921.96;89188;1267;25286;-71
2023/01/12 03:32:24;;;;;;;86.70;49.90;;;;;;;2.89;88.33;98922.48;89194;1270;22536;-71
2023/01/12 03:34:27;;;;;;;86.70;52.00;;;;;;;2.92;88.04;98926.07;89152;1267;99770;-70
2023/01/12 03:36:48;;;;;;;92.30;51.50;;;;;;;2.93;88.08;98928.30;89297;1269;23482;-71
2023/01/12 03:38:55;;;;;;;95.20;53.30;;;;;;;2.96;88.05;98925.47;89278;1269;99357;-71
2023/01/12 03:41:09;;;;;;;86.70;52.10;;;;;;;2.97;88.19;98925.45;89247;1267;22532;-71
2023/01/12 03:43:13;;;;;;;84.70;50.30;;;;;;;2.99;87.95;98922.98;89404;1268;22526;-71
2023/01/12 03:45:29;;;;;;;86.20;50.00;;;;;;;3.01;88.10;98926.95;89139;1267;99498;-70
2023/01/12 03:47:35;;;;;;;87.50;50.80;;;;;;;3.02;88.16;98932.16;89233;1257;23882;-70
2023/01/12 03:49:44;;;;;;;88.50;51.20;;;;;;;3.04;88.27;98936.44;89389;1262;22558;-70
2023/01/12 03:51:48;;;;;;;83.30;51.80;;;;;;;3.04;88.02;98933.64;89400;1267;99445;-69
2023/01/12 03:53:51;;;;;;;85.90;50.90;;;;;;;3.06;88.21;98933.80;89258;1270;22567;-70
2023/01/12 03:55:58;;;;;;;78.90;49.40;;;;;;;3.07;88.20;98937.94;89230;1269;22641;-69
2023/01/12 03:58:00;;;;;;;84.10;52.30;;;;;;;3.10;88.17;98940.83;89117;1264;100776;-70
2023/01/12 04:00:06;;;;;;;86.70;52.70;;;;;;;3.12;88.16;98941.33;89257;1268;22640;-70
2023/01/12 04:02:08;;;;;;;82.40;50.70;;;;;;;3.12;88.23;98941.84;89074;1264;22577;-69
2023/01/12 04:04:10;;;;;;;90.70;52.60;;;;;;;3.13;88.06;98945.13;89173;1268;99316;-70
2023/01/12 04:06:12;;;;;;;88.30;55.50;;;;;;;3.12;88.04;98950.88;89261;1270;24284;-71
2023/01/12 04:08:15;;;;;;;93.20;56.10;;;;;;;3.12;88.07;98949.67;89205;1268;22537;-72
2023/01/12 04:10:16;;;;;;;96.70;58.30;;;;;;;3.10;88.15;98949.85;89028;1264;99057;-71
2023/01/12 04:12:18;;;;;;;91.70;56.60;;;;;;;3.10;88.16;98949.33;89152;1270;22531;-70
2023/01/12 04:14:20;;;;;;;91.30;54.30;;;;;;;3.11;88.15;98950.90;89208;1262;25392;-71
2023/01/12 04:16:22;;;;;;;93.70;53.00;;;;;;;3.11;88.31;98948.29;89105;1267;99501;-71
2023/01/12 04:18:23;;;;;;;92.00;54.20;;;;;;;3.10;88.28;98947.42;89296;1268;22641;-71
2023/01/12 04:20:25;;;;;;;87.50;54.60;;;;;;;3.11;88.19;98944.30;89289;1268;22533;-71
2023/01/12 04:22:42;;;;;;;94.50;56.00;;;;;;;3.13;88.44;98947.39;89289;1262;99074;-71
2023/01/12 04:24:44;;;;;;;90.80;54.40;;;;;;;3.13;88.26;98947.39;89278;1270;22557;-71
2023/01/12 04:26:45;;;;;;;94.60;56.10;;;;;;;3.14;88.18;98947.54;89327;1269;101151;-71
2023/01/12 04:28:47;;;;;;;92.10;53.90;;;;;;;3.13;88.36;98945.81;89157;1264;22541;-71
2023/01/12 04:30:49;;;;;;;95.30;51.90;;;;;;;3.14;88.11;98950.67;89304;1269;23112;-70
2023/01/12 04:32:51;;;;;;;92.30;53.00;;;;;;;3.12;88.37;98946.70;89259;1265;99880;-70
2023/01/12 04:34:52;;;;;;;97.40;55.20;;;;;;;3.12;88.21;98944.27;89124;1269;22777;-70
2023/01/12 04:36:54;;;;;;;89.10;54.40;;;;;;;3.13;88.01;98949.47;89240;1262;22713;-71
2023/01/12 04:38:56;;;;;;;86.90;51.50;;;;;;;3.13;88.26;98949.45;89118;1270;99249;-70
2023/01/12 04:40:57;;;;;;;89.80;51.30;;;;;;;3.14;88.29;98948.92;89211;1269;22728;-70
2023/01/12 04:43:06;;;;;;;91.70;53.20;;;;;;;3.15;88.15;98949.95;89145;1267;22644;-71
2023/01/12 04:45:08;;;;;;;91.10;52.80;;;;;;;3.17;88.36;98951.83;89102;1269;98156;-70
2023/01/12 04:47:10;;;;;;;93.70;51.30;;;;;;;3.17;88.46;98948.86;89242;1254;22637;-69
2023/01/12 04:49:12;;;;;;;89.90;53.30;;;;;;;3.18;88.40;98945.72;89329;1268;23032;-71
2023/01/12 04:51:14;;;;;;;88.40;52.80;;;;;;;3.20;88.27;98945.52;89063;1273;98197;-70
2023/01/12 04:53:15;;;;;;;82.60;51.10;;;;;;;3.22;88.28;98947.91;89363;1262;22590;-70
2023/01/12 04:55:17;;;;;;;92.30;53.10;;;;;;;3.21;88.14;98945.85;89110;1270;22643;-70
2023/01/12 04:57:19;;;;;;;83.70;51.60;;;;;;;3.24;88.39;98951.35;89128;1271;99684;-70
2023/01/12 04:59:21;;;;;;;100.10;53.50;;;;;;;3.25;88.22;98949.06;89336;1266;24212;-70
2023/01/12 05:01:22;;;;;;;81.20;51.40;;;;;;;3.27;88.18;98947.12;89288;1268;22536;-72
2023/01/12 05:03:24;;;;;;;87.90;53.00;;;;;;;3.28;88.19;98948.48;89117;1269;100717;-70
2023/01/12 05:05:26;;;;;;;88.90;51.00;;;;;;;3.28;88.22;98944.33;89303;1267;23093;-70
2023/01/12 05:07:28;;;;;;;83.00;49.90;;;;;;;3.29;88.27;98945.70;89159;1269;22650;-71
2023/01/12 05:11:49;;;;;;;84.60;50.20;;;;;;;3.27;88.08;98949.21;89245;1260;22534;-70
2023/01/12 05:13:51;;;;;;;84.00;48.70;;;;;;;3.29;88.30;98951.08;89209;1269;23809;-70
2023/01/12 05:15:54;;;;;;;91.70;50.00;;;;;;;3.30;88.31;98949.67;89112;1266;97991;-71
2023/01/12 05:17:56;;;;;;;84.40;50.30;;;;;;;3.31;88.01;98951.38;89371;1269;23463;-71
2023/01/12 05:19:58;;;;;;;84.90;52.20;;;;;;;3.32;88.29;98949.11;89274;1267;22552;-70
2023/01/12 05:22:00;;;;;;;86.50;51.90;;;;;;;3.33;88.30;98949.44;89230;1264;98081;-70
2023/01/12 05:24:03;;;;;;;96.00;53.10;;;;;;;3.34;88.11;98953.09;89509;1267;24421;-71
2023/01/12 05:26:05;;;;;;;88.40;55.40;;;;;;;3.35;88.40;98955.83;89465;1270;22622;-72
2023/01/12 05:28:07;;;;;;;90.50;51.00;;;;;;;3.36;88.31;98954.94;89318;1267;99239;-73
2023/01/12 05:30:10;;;;;;;89.10;51.00;;;;;;;3.37;88.55;98953.88;89241;1270;22539;-71
2023/01/12 05:32:11;;;;;;;83.30;51.00;;;;;;;3.37;88.22;98953.53;89270;1268;22647;-70
2023/01/12 05:34:13;;;;;;;97.70;54.00;;;;;;;3.38;88.29;98952.13;89222;1262;98353;-70
2023/01/12 05:36:16;;;;;;;98.90;57.40;;;;;;;3.38;88.35;98948.48;89293;1270;22585;-71
2023/01/12 05:38:18;;;;;;;95.70;52.50;;;;;;;3.38;88.40;98955.27;89531;1265;26725;-71
2023/01/12 05:40:19;;;;;;;90.40;51.40;;;;;;;3.38;88.38;98957.52;89264;1262;98495;-70
2023/01/12 05:44:41;;;;;;;85.80;52.90;;;;;;;3.37;88.21;98956.66;89374;1270;99319;-70
2023/01/12 05:46:43;;;;;;;90.80;54.60;;;;;;;3.38;88.20;98959.26;89437;1270;22602;-71
2023/01/12 05:48:45;;;;;;;87.60;50.30;;;;;;;3.37;88.33;98960.65;89224;1270;24231;-71
2023/01/12 05:50:47;;;;;;;83.80;51.10;;;;;;;3.34;88.34;98960.17;89283;1267;99790;-71
2023/01/12 05:52:52;;;;;;;94.80;53.50;;;;;;;3.35;88.26;98966.23;89237;1268;22897;-72
2023/01/12 05:54:54;;;;;;;79.00;48.10;;;;;;;3.36;88.23;98965.88;89129;1262;25493;-71
2023/01/12 05:56:55;;;;;;;75.80;44.00;;;;;;;3.36;88.43;98968.81;89005;1256;99776;-70
2023/01/12 05:59:00;;;;;;;67.50;41.60;;;;;;;3.37;88.34;98961.70;89031;1270;22686;-70
2023/01/12 06:01:09;;;;;;;64.80;42.10;;;;;;;3.38;88.48;98958.02;89360;1263;22531;-71
2023/01/12 06:03:10;;;;;;;67.00;41.60;;;;;;;3.40;88.65;98954.00;89255;1267;100044;-71
2023/01/12 06:05:12;;;;;;;66.40;42.30;;;;;;;3.40;88.48;98955.73;89123;1262;22625;-71
2023/01/12 06:07:15;;;;;;;67.30;41.30;;;;;;;3.42;88.36;98958.14;89197;1263;23536;-71
2023/01/12 06:09:16;;;;;;;63.20;39.80;;;;;;;3.43;88.51;98956.02;89017;1269;99887;-71
2023/01/12 06:13:58;;;;;;;;;;;;;;;3.44;88.67;98951.48;89281;1260;22498;-71
2023/01/12 06:16:04;;;;;;;53.10;33.00;;;;;;;3.44;88.76;98948.02;89046;1260;85374;-70
2023/01/12 06:18:05;;;;;;;57.90;34.20;;;;;;;3.44;88.75;98950.63;89313;1270;23549;-70
2023/01/12 06:20:08;;;;;;;57.50;34.10;;;;;;;3.45;88.52;98951.64;89194;1267;25263;-71
2023/01/12 06:22:09;;;;;;;49.30;33.60;;;;;;;3.45;88.57;98953.03;89128;1268;99583;-72
2023/01/12 06:24:11;;;;;;;56.70;34.50;;;;;;;3.46;88.66;98952.33;89242;1254;23426;-71
2023/01/12 06:26:13;;;;;;;51.60;32.40;;;;;;;3.46;88.60;98953.19;89087;1270;22498;-70
2023/01/12 06:28:15;;;;;;;52.00;34.40;;;;;;;3.47;88.75;98957.52;89164;1268;99588;-71
2023/01/12 06:30:17;;;;;;;52.30;32.30;;;;;;;3.47;88.67;98958.73;89299;1268;22520;-71
2023/01/12 06:32:18;;;;;;;53.90;33.40;;;;;;;3.47;88.72;98964.98;89136;1262;23907;-71
2023/01/12 06:34:20;;;;;;;54.40;35.60;;;;;;;3.46;88.71;98962.91;89034;1262;99883;-70
2023/01/12 06:36:22;;;;;;;51.10;32.90;;;;;;;3.45;88.73;98967.45;89150;1268;25310;-71
2023/01/12 06:38:25;;;;;;;56.10;36.10;;;;;;;3.44;88.53;98975.62;89173;1261;22679;-70
2023/01/12 06:40:27;;;;;;;55.90;38.10;;;;;;;3.44;88.58;98983.09;88989;1270;98934;-70
2023/01/12 06:42:29;;;;;;;62.60;37.80;;;;;;;3.44;88.60;98986.73;89115;1268;26979;-70
2023/01/12 06:44:30;;;;;;;63.00;38.30;;;;;;;3.44;88.67;98988.48;89152;1268;24189;-69
2023/01/12 06:46:32;;;;;;;63.90;40.10;;;;;;;3.43;88.69;98988.66;89075;1269;99004;-71
2023/01/12 06:48:34;;;;;;;59.50;37.60;;;;;;;3.44;88.83;98987.79;88930;1273;22657;-70
2023/01/12 06:50:37;;;;;;;59.60;40.50;;;;;;;3.44;88.53;98997.34;89350;1263;24268;-70
2023/01/12 06:52:39;;;;;;;61.10;37.90;;;;;;;3.42;88.65;99001.73;89173;1265;22572;-71
2023/01/12 06:54:41;;;;;;;62.50;39.80;;;;;;;3.41;88.58;99004.70;89254;1267;22583;-71
2023/01/12 06:56:42;;;;;;;66.60;39.50;;;;;;;3.40;88.74;99008.35;89032;1268;99014;-70
2023/01/12 06:58:44;;;;;;;69.10;39.30;;;;;;;3.40;88.75;99010.09;89184;1265;22596;-71
2023/01/12 07:00:46;;;;;;;59.00;39.20;;;;;;;3.40;88.59;99013.20;89183;1267;22574;-73
2023/01/12 07:02:49;;;;;;;65.30;39.30;;;;;;;3.38;88.70;99013.42;88991;1267;99406;-71
2023/01/12 07:04:51;;;;;;;66.90;39.00;;;;;;;3.38;88.75;99020.21;89138;1267;22547;-70
2023/01/12 07:06:54;;;;;;;64.20;40.20;;;;;;;3.38;88.78;99026.45;89055;1265;22575;-70
2023/01/12 07:08:55;;;;;;;60.40;37.80;;;;;;;3.38;88.64;99024.38;89017;1268;99783;-70
2023/01/12 07:11:06;;;;;;;58.80;39.60;;;;;;;3.38;88.80;99024.36;89040;1264;22529;-71
2023/01/12 07:13:08;;;;;;;63.40;40.10;;;;;;;3.39;88.85;99028.35;89350;1263;22566;-73
2023/01/12 07:15:10;;;;;;;59.00;39.40;;;;;;;3.40;88.76;99030.77;89146;1262;99405;-70
2023/01/12 07:17:12;;;;;;;63.70;37.10;;;;;;;3.41;88.89;99032.48;89021;1266;23019;-71
2023/01/12 07:19:13;;;;;;;61.80;38.10;;;;;;;3.42;88.66;99037.67;89039;1255;22536;-70
2023/01/12 07:21:18;;;;;;;65.10;39.10;;;;;;;3.44;88.65;99036.08;89022;1265;99733;-71
2023/01/12 07:23:20;;;;;;;60.00;37.20;;;;;;;3.46;88.77;99035.86;89145;1269;22556;-71
2023/01/12 07:25:23;;;;;;;66.80;38.20;;;;;;;3.48;88.89;99031.66;89143;1268;22856;-71
2023/01/12 07:27:25;;;;;;;58.00;37.90;;;;;;;3.50;88.90;99037.20;89402;1270;99026;-72
2023/01/12 07:29:27;;;;;;;61.00;38.00;;;;;;;3.52;88.77;99033.33;88964;1265;22548;-71
2023/01/12 07:31:29;;;;;;;62.40;39.00;;;;;;;3.53;88.78;99033.81;89132;1265;25269;-71
2023/01/12 07:33:33;;;;;;;65.00;39.80;;;;;;;3.53;88.92;99037.80;88987;1270;99793;-70
2023/01/12 07:35:34;;;;;;;63.10;36.80;;;;;;;3.55;88.60;99033.60;89030;1270;22633;-70
2023/01/12 07:37:36;;;;;;;69.40;38.10;;;;;;;3.57;88.96;99033.58;89110;1255;22540;-71
2023/01/12 07:39:38;;;;;;;55.20;36.70;;;;;;;3.59;88.78;99031.11;89119;1270;99132;-70
2023/01/12 07:44:00;;;;;;;69.80;38.90;;;;;;;3.62;88.76;99035.90;89143;1268;23065;-70
2023/01/12 07:46:01;;;;;;;67.70;39.60;;;;;;;3.65;88.70;99036.73;89058;1262;99243;-70
2023/01/12 07:48:03;;;;;;;66.70;39.00;;;;;;;3.66;88.72;99038.63;89131;1261;25436;-73
2023/01/12 07:50:06;;;;;;;69.00;41.20;;;;;;;3.67;88.75;99039.81;89055;1267;23631;-71
2023/01/12 07:52:10;;;;;;;71.80;42.30;;;;;;;3.69;88.70;99043.44;89029;1268;99625;-71
2023/01/12 07:54:12;;;;;;;71.50;38.70;;;;;;;3.70;88.65;99044.63;89092;1270;24276;-70
2023/01/12 07:56:18;;;;;;;58.90;35.90;;;;;;;3.71;88.81;99050.67;89054;1269;22528;-70
2023/01/12 07:58:19;;;;;;;63.70;39.80;;;;;;;3.73;88.80;99054.30;88982;1263;99251;-72
2023/01/12 08:00:24;;;;;;;55.70;35.60;;;;;;;3.74;88.63;99054.63;88973;1271;22590;-70
2023/01/12 08:02:25;;;;;;;59.50;36.60;;;;;;;3.76;88.78;99056.85;89325;1261;22796;-70
2023/01/12 08:04:27;;;;;;;54.00;35.80;;;;;;;3.77;88.89;99046.40;89062;1262;98295;-71
2023/01/12 08:06:29;;;;;;;60.10;36.90;;;;;;;3.79;88.68;99047.58;89048;1270;24200;-70
2023/01/12 08:08:31;;;;;;;63.30;38.50;;;;;;;3.81;88.74;99046.33;89077;1265;22556;-70
2023/01/12 08:10:32;;;;;;;63.70;38.50;;;;;;;3.82;88.90;99044.92;88745;1271;99795;-70
2023/01/12 08:12:34;;;;;;;57.80;37.00;;;;;;;3.84;88.80;99042.96;89055;1270;22614;-70
2023/01/12 08:14:38;;;;;;;55.90;36.40;;;;;;;3.83;88.84;99039.34;89039;1255;24253;-72
2023/01/12 08:16:44;;;;;;;62.90;40.10;;;;;;;3.86;88.89;99042.41;89632;1254;25478;-72
2023/01/12 08:18:53;;;;;;;62.80;39.10;;;;;;;3.87;88.75;99043.23;88975;1270;26417;-71
2023/01/12 08:20:58;;;;;;;60.30;37.00;;;;;;;3.88;88.70;99040.81;88981;1264;99824;-72
2023/01/12 08:23:24;;;;;;;64.50;37.30;;;;;;;3.89;88.65;99042.70;88931;1265;22622;-70
2023/01/12 08:25:34;;;;;;;53.80;34.60;;;;;;;3.90;88.60;99040.23;89075;1261;22537;-71
2023/01/12 08:27:41;;;;;;;49.30;33.40;;;;;;;3.91;88.84;99041.42;88980;1269;99240;-72
2023/01/12 08:29:46;;;;;;;57.50;35.70;;;;;;;3.93;88.69;99046.09;89087;1268;25263;-72
2023/01/12 08:31:48;;;;;;;65.10;34.40;;;;;;;3.95;88.72;99048.16;88903;1261;22521;-72
2023/01/12 08:33:52;;;;;;;52.60;34.30;;;;;;;3.96;88.80;99050.38;88855;1270;99275;-73
2023/01/12 08:35:54;;;;;;;55.40;34.90;;;;;;;3.97;88.86;99051.92;89203;1265;22581;-72
2023/01/12 08:37:56;;;;;;;54.90;33.50;;;;;;;3.99;88.76;99048.92;89075;1263;23911;-71
2023/01/12 08:39:58;;;;;;;52.60;34.00;;;;;;;4.01;88.73;99047.33;88924;1270;99139;-72
2023/01/12 08:42:01;;;;;;;55.60;34.10;;;;;;;4.00;88.62;99040.05;89015;1265;24327;-72
2023/01/12 08:44:08;;;;;;;61.40;35.40;;;;;;;4.01;88.72;99044.54;89118;1262;22677;-72
2023/01/12 08:46:09;;;;;;;57.10;34.70;;;;;;;4.01;88.71;99047.30;88988;1269;99150;-70
2023/01/12 08:48:11;;;;;;;58.80;34.70;;;;;;;4.02;88.66;99054.08;89183;1261;22549;-72
2023/01/12 08:50:13;;;;;;;52.20;34.00;;;;;;;4.04;88.68;99059.27;89073;1262;24656;-71
2023/01/12 08:52:15;;;;;;;57.90;36.20;;;;;;;4.06;88.66;99058.36;89058;1261;99148;-72
2023/01/12 08:54:19;;;;;;;54.70;35.50;;;;;;;4.06;88.66;99056.62;89102;1268;23843;-71
2023/01/12 08:56:21;;;;;;;57.70;35.80;;;;;;;4.05;88.67;99053.67;89167;1268;22780;-70
2023/01/12 08:58:22;;;;;;;54.60;36.40;;;;;;;4.03;88.58;99055.09;89197;1268;99586;-72
2023/01/12 09:00:25;;;;;;;60.70;38.00;;;;;;;4.02;88.53;99050.08;89073;1271;25351;-72
2023/01/12 09:02:26;;;;;;;63.30;39.30;;;;;;;4.03;88.61;99051.09;89180;1257;24227;-72
2023/01/12 09:04:28;;;;;;;59.70;38.20;;;;;;;4.04;88.68;99052.30;89066;1261;99119;-71
2023/01/12 09:06:34;;;;;;;53.40;36.80;;;;;;;4.03;88.62;99048.16;89123;1269;24056;-71
2023/01/12 09:08:36;;;;;;;55.20;36.10;;;;;;;4.02;88.50;99049.55;88977;1270;22619;-71
2023/01/12 09:10:37;;;;;;;63.60;37.30;;;;;;;4.03;88.64;99049.52;88769;1271;99340;-70
2023/01/12 09:12:39;;;;;;;59.60;37.00;;;;;;;4.03;88.55;99049.89;88997;1270;23229;-71
2023/01/12 09:14:41;;;;;;;62.80;39.00;;;;;;;4.03;88.65;99055.78;88863;1265;99539;-71
2023/01/12 09:16:43;;;;;;;54.20;35.60;;;;;;;4.03;88.54;99059.61;89048;1265;26896;-73
2023/01/12 09:18:45;;;;;;;56.70;37.10;;;;;;;4.03;88.70;99057.18;88857;1271;22540;-71
2023/01/12 09:20:47;;;;;;;55.20;36.10;;;;;;;4.03;88.62;99050.92;89025;1269;98924;-71
2023/01/12 09:22:49;;;;;;;57.30;36.50;;;;;;;4.05;88.65;99048.47;89067;1269;23604;-71
2023/01/12 09:24:50;;;;;;;56.90;39.10;;;;;;;4.05;88.61;99046.73;89131;1269;22536;-72
2023/01/12 09:26:52;;;;;;;60.50;38.80;;;;;;;4.08;88.76;99046.13;89145;1266;99258;-73
2023/01/12 09:28:55;;;;;;;61.50;39.80;;;;;;;4.12;88.94;99049.18;88959;1265;22562;-72
2023/01/12 09:31:08;;;;;;;63.80;40.30;;;;;;;4.16;88.71;99046.14;89047;1270;22603;-72
2023/01/12 09:33:10;;;;;;;60.00;38.70;;;;;;;4.21;88.74;99040.12;89144;1269;99436;-71
2023/01/12 09:35:13;;;;;;;54.60;36.50;;;;;;;4.28;88.88;99031.27;89176;1268;25467;-70
2023/01/12 09:37:15;;;;;;;63.50;38.30;;;;;;;4.39;88.99;99027.73;89057;1270;23004;-72
2023/01/12 09:39:19;;;;;;;53.60;34.90;;;;;;;4.52;89.16;99026.75;89195;1270;99153;-71
2023/01/12 09:48:57;;;;;;;41.10;28.30;;;;;;;5.18;89.25;99022.55;89051;1269;24285;-71
2023/01/12 09:51:07;;;;;;;42.90;29.70;;;;;;;5.33;89.47;99012.42;88990;1262;99192;-72
2023/01/12 09:53:30;;;;;;;38.70;26.80;;;;;;;5.47;89.19;99000.02;89087;1268;24191;-71
2023/01/12 09:55:50;;;;;;;36.70;24.80;;;;;;;5.62;88.96;98997.52;89041;1269;23382;-71
2023/01/12 09:58:04;;;;;;;31.30;19.90;;;;;;;5.77;89.12;98992.22;89132;1268;99558;-71
2023/01/12 10:00:13;;;;;;;21.20;15.40;;;;;;;6.00;89.22;98993.34;89159;1268;24309;-70
2023/01/12 10:02:15;;;;;;;21.50;14.80;;;;;;;6.17;89.16;98990.41;90427;1260;25603;-71
2023/01/12 10:04:17;;;;;;;22.20;15.40;;;;;;;6.37;88.87;98988.41;88875;1271;99715;-70
2023/01/12 10:06:20;;;;;;;25.20;16.30;;;;;;;6.66;88.79;98990.82;89167;1269;22573;-71
2023/01/12 10:08:31;;;;;;;24.20;16.30;;;;;;;7.00;89.24;98987.95;89389;1268;22553;-72